sensor_id;sensor_type;location;lat;lon;timestamp;temperature;humidity
3942;DHT22;1985;48.592;8.850;2022-07-06T00:00:33;19.60;73.80
3942;DHT22;1985;48.592;8.850;2022-07-06T00:02:59;19.60;73.50
3942;DHT22;1985;48.592;8.850;2022-07-06T00:05:25;19.60;74.20
3942;DHT22;1985;48.592;8.850;2022-07-06T00:07:51;19.60;74.50
3942;DHT22;1985;48.592;8.850;2022-07-06T00:10:16;19.50;73.90
3942;DHT22;1985;48.592;8.850;2022-07-06T00:12:42;19.40;74.60
3942;DHT22;1985;48.592;8.850;2022-07-06T00:15:08;19.40;73.80
3942;DHT22;1985;48.592;8.850;2022-07-06T00:17:34;19.40;74.50
3942;DHT22;1985;48.592;8.850;2022-07-06T00:19:59;19.30;74.90
3942;DHT22;1985;48.592;8.850;2022-07-06T00:22:25;19.30;75.20
3942;DHT22;1985;48.592;8.850;2022-07-06T00:24:51;19.40;74.50
3942;DHT22;1985;48.592;8.850;2022-07-06T00:27:16;19.40;74.20
3942;DHT22;1985;48.592;8.850;2022-07-06T00:29:42;19.30;74.80
3942;DHT22;1985;48.592;8.850;2022-07-06T00:32:10;19.30;74.60
3942;DHT22;1985;48.592;8.850;2022-07-06T00:34:37;19.30;74.40
3942;DHT22;1985;48.592;8.850;2022-07-06T00:37:05;19.20;74.10
3942;DHT22;1985;48.592;8.850;2022-07-06T00:39:30;19.20;74.90
3942;DHT22;1985;48.592;8.850;2022-07-06T00:41:56;19.20;75.70
3942;DHT22;1985;48.592;8.850;2022-07-06T00:44:22;19.20;75.50
3942;DHT22;1985;48.592;8.850;2022-07-06T00:46:48;19.20;74.60
3942;DHT22;1985;48.592;8.850;2022-07-06T00:49:13;19.10;74.20
3942;DHT22;1985;48.592;8.850;2022-07-06T00:51:58;19.10;75.10
3942;DHT22;1985;48.592;8.850;2022-07-06T00:54:26;19.00;74.80
3942;DHT22;1985;48.592;8.850;2022-07-06T00:56:55;19.00;75.50
3942;DHT22;1985;48.592;8.850;2022-07-06T00:59:22;19.00;75.10
3942;DHT22;1985;48.592;8.850;2022-07-06T01:01:48;18.90;74.60
3942;DHT22;1985;48.592;8.850;2022-07-06T01:04:14;18.90;74.40
3942;DHT22;1985;48.592;8.850;2022-07-06T01:06:39;18.90;75.40
3942;DHT22;1985;48.592;8.850;2022-07-06T01:09:06;18.90;75.10
3942;DHT22;1985;48.592;8.850;2022-07-06T01:11:32;18.80;75.00
3942;DHT22;1985;48.592;8.850;2022-07-06T01:14:00;18.90;75.00
3942;DHT22;1985;48.592;8.850;2022-07-06T01:16:26;18.90;74.00
3942;DHT22;1985;48.592;8.850;2022-07-06T01:18:52;18.90;74.70
3942;DHT22;1985;48.592;8.850;2022-07-06T01:21:17;18.90;74.60
3942;DHT22;1985;48.592;8.850;2022-07-06T01:23:45;18.90;74.50
3942;DHT22;1985;48.592;8.850;2022-07-06T01:26:20;18.90;74.70
3942;DHT22;1985;48.592;8.850;2022-07-06T01:28:50;18.90;74.20
3942;DHT22;1985;48.592;8.850;2022-07-06T01:31:21;18.90;74.30
3942;DHT22;1985;48.592;8.850;2022-07-06T01:33:49;18.90;74.30
3942;DHT22;1985;48.592;8.850;2022-07-06T01:36:15;18.90;75.20
3942;DHT22;1985;48.592;8.850;2022-07-06T01:38:58;19.00;74.20
3942;DHT22;1985;48.592;8.850;2022-07-06T01:41:24;19.10;73.30
3942;DHT22;1985;48.592;8.850;2022-07-06T01:43:51;19.10;74.50
3942;DHT22;1985;48.592;8.850;2022-07-06T01:46:16;19.10;73.30
3942;DHT22;1985;48.592;8.850;2022-07-06T01:48:44;19.00;75.10
3942;DHT22;1985;48.592;8.850;2022-07-06T01:51:10;18.90;74.60
3942;DHT22;1985;48.592;8.850;2022-07-06T01:53:37;18.80;74.90
3942;DHT22;1985;48.592;8.850;2022-07-06T01:56:03;18.80;74.60
3942;DHT22;1985;48.592;8.850;2022-07-06T01:58:29;18.80;74.20
3942;DHT22;1985;48.592;8.850;2022-07-06T02:00:54;18.90;75.50
3942;DHT22;1985;48.592;8.850;2022-07-06T02:03:20;18.80;74.60
3942;DHT22;1985;48.592;8.850;2022-07-06T02:05:46;18.80;75.80
3942;DHT22;1985;48.592;8.850;2022-07-06T02:08:12;18.90;73.30
3942;DHT22;1985;48.592;8.850;2022-07-06T02:10:38;18.80;74.20
3942;DHT22;1985;48.592;8.850;2022-07-06T02:13:03;18.80;75.70
3942;DHT22;1985;48.592;8.850;2022-07-06T02:15:29;18.60;73.50
3942;DHT22;1985;48.592;8.850;2022-07-06T02:17:55;18.60;75.70
3942;DHT22;1985;48.592;8.850;2022-07-06T02:20:20;18.50;77.50
3942;DHT22;1985;48.592;8.850;2022-07-06T02:22:46;18.50;76.20
3942;DHT22;1985;48.592;8.850;2022-07-06T02:25:11;18.40;76.40
3942;DHT22;1985;48.592;8.850;2022-07-06T02:27:37;18.50;76.10
3942;DHT22;1985;48.592;8.850;2022-07-06T02:30:04;18.60;76.00
3942;DHT22;1985;48.592;8.850;2022-07-06T02:32:30;18.50;75.60
3942;DHT22;1985;48.592;8.850;2022-07-06T02:34:56;18.60;75.40
3942;DHT22;1985;48.592;8.850;2022-07-06T02:37:22;18.60;75.40
3942;DHT22;1985;48.592;8.850;2022-07-06T02:39:48;18.60;75.30
3942;DHT22;1985;48.592;8.850;2022-07-06T02:42:14;18.60;75.00
3942;DHT22;1985;48.592;8.850;2022-07-06T02:44:39;18.60;75.00
3942;DHT22;1985;48.592;8.850;2022-07-06T02:47:05;18.60;75.30
3942;DHT22;1985;48.592;8.850;2022-07-06T02:49:31;18.50;75.00
3942;DHT22;1985;48.592;8.850;2022-07-06T02:51:56;18.60;75.50
3942;DHT22;1985;48.592;8.850;2022-07-06T02:54:22;18.60;75.30
3942;DHT22;1985;48.592;8.850;2022-07-06T02:56:47;18.50;75.50
3942;DHT22;1985;48.592;8.850;2022-07-06T02:59:17;18.50;75.60
3942;DHT22;1985;48.592;8.850;2022-07-06T03:01:43;18.50;75.90
3942;DHT22;1985;48.592;8.850;2022-07-06T03:04:09;18.50;75.90
3942;DHT22;1985;48.592;8.850;2022-07-06T03:06:34;18.40;77.90
3942;DHT22;1985;48.592;8.850;2022-07-06T03:09:00;18.30;78.80
3942;DHT22;1985;48.592;8.850;2022-07-06T03:11:26;18.30;77.30
3942;DHT22;1985;48.592;8.850;2022-07-06T03:13:51;18.30;77.50
3942;DHT22;1985;48.592;8.850;2022-07-06T03:16:17;18.30;77.60
3942;DHT22;1985;48.592;8.850;2022-07-06T03:18:42;18.20;77.50
3942;DHT22;1985;48.592;8.850;2022-07-06T03:21:08;18.10;77.40
3942;DHT22;1985;48.592;8.850;2022-07-06T03:23:34;18.10;77.80
3942;DHT22;1985;48.592;8.850;2022-07-06T03:26:00;18.10;77.50
3942;DHT22;1985;48.592;8.850;2022-07-06T03:28:26;18.20;77.70
3942;DHT22;1985;48.592;8.850;2022-07-06T03:30:52;18.10;78.30
3942;DHT22;1985;48.592;8.850;2022-07-06T03:33:18;18.10;78.10
3942;DHT22;1985;48.592;8.850;2022-07-06T03:35:43;18.10;78.20
3942;DHT22;1985;48.592;8.850;2022-07-06T03:38:09;18.10;78.90
3942;DHT22;1985;48.592;8.850;2022-07-06T03:40:34;18.10;79.60
3942;DHT22;1985;48.592;8.850;2022-07-06T03:43:00;18.10;80.10
3942;DHT22;1985;48.592;8.850;2022-07-06T03:45:26;18.10;79.30
3942;DHT22;1985;48.592;8.850;2022-07-06T03:47:51;18.10;79.00
3942;DHT22;1985;48.592;8.850;2022-07-06T03:50:17;18.10;79.30
3942;DHT22;1985;48.592;8.850;2022-07-06T03:52:43;18.00;79.30
3942;DHT22;1985;48.592;8.850;2022-07-06T03:55:12;18.10;79.70
3942;DHT22;1985;48.592;8.850;2022-07-06T03:57:38;18.10;79.70
3942;DHT22;1985;48.592;8.850;2022-07-06T04:00:06;18.10;79.60
3942;DHT22;1985;48.592;8.850;2022-07-06T04:02:32;18.10;79.90
3942;DHT22;1985;48.592;8.850;2022-07-06T04:04:58;18.10;80.00
3942;DHT22;1985;48.592;8.850;2022-07-06T04:07:24;18.10;79.90
3942;DHT22;1985;48.592;8.850;2022-07-06T04:09:50;18.10;80.10
3942;DHT22;1985;48.592;8.850;2022-07-06T04:12:16;18.20;80.20
3942;DHT22;1985;48.592;8.850;2022-07-06T04:14:42;18.20;80.30
3942;DHT22;1985;48.592;8.850;2022-07-06T04:17:07;18.20;80.50
3942;DHT22;1985;48.592;8.850;2022-07-06T04:19:51;18.30;80.30
3942;DHT22;1985;48.592;8.850;2022-07-06T04:22:17;18.40;80.40
3942;DHT22;1985;48.592;8.850;2022-07-06T04:24:43;18.50;80.40
3942;DHT22;1985;48.592;8.850;2022-07-06T04:27:08;18.50;80.50
3942;DHT22;1985;48.592;8.850;2022-07-06T04:29:34;18.50;81.00
3942;DHT22;1985;48.592;8.850;2022-07-06T04:32:00;18.60;80.80
3942;DHT22;1985;48.592;8.850;2022-07-06T04:34:25;18.60;80.80
3942;DHT22;1985;48.592;8.850;2022-07-06T04:36:51;18.70;80.70
3942;DHT22;1985;48.592;8.850;2022-07-06T04:39:16;18.80;80.70
3942;DHT22;1985;48.592;8.850;2022-07-06T04:41:42;18.80;80.50
3942;DHT22;1985;48.592;8.850;2022-07-06T04:44:08;18.80;80.80
3942;DHT22;1985;48.592;8.850;2022-07-06T04:46:33;18.80;81.20
3942;DHT22;1985;48.592;8.850;2022-07-06T04:48:59;18.90;81.10
3942;DHT22;1985;48.592;8.850;2022-07-06T04:51:25;18.90;81.30
3942;DHT22;1985;48.592;8.850;2022-07-06T04:53:50;19.00;81.20
3942;DHT22;1985;48.592;8.850;2022-07-06T04:56:16;19.00;80.90
3942;DHT22;1985;48.592;8.850;2022-07-06T04:58:41;19.10;80.60
3942;DHT22;1985;48.592;8.850;2022-07-06T05:01:07;19.20;80.50
3942;DHT22;1985;48.592;8.850;2022-07-06T05:03:33;19.30;80.50
3942;DHT22;1985;48.592;8.850;2022-07-06T05:06:01;19.30;80.10
3942;DHT22;1985;48.592;8.850;2022-07-06T05:08:29;19.40;79.70
3942;DHT22;1985;48.592;8.850;2022-07-06T05:10:55;19.40;80.30
3942;DHT22;1985;48.592;8.850;2022-07-06T05:13:21;19.40;80.30
3942;DHT22;1985;48.592;8.850;2022-07-06T05:15:46;19.40;80.20
3942;DHT22;1985;48.592;8.850;2022-07-06T05:18:12;19.40;80.20
3942;DHT22;1985;48.592;8.850;2022-07-06T05:20:38;19.40;79.90
3942;DHT22;1985;48.592;8.850;2022-07-06T05:23:03;19.50;80.60
3942;DHT22;1985;48.592;8.850;2022-07-06T05:25:29;19.50;80.80
3942;DHT22;1985;48.592;8.850;2022-07-06T05:27:55;19.60;80.70
3942;DHT22;1985;48.592;8.850;2022-07-06T05:30:21;19.60;80.10
3942;DHT22;1985;48.592;8.850;2022-07-06T05:32:46;19.70;80.10
3942;DHT22;1985;48.592;8.850;2022-07-06T05:35:12;19.70;80.10
3942;DHT22;1985;48.592;8.850;2022-07-06T05:37:38;19.70;79.60
3942;DHT22;1985;48.592;8.850;2022-07-06T05:40:04;19.60;79.60
3942;DHT22;1985;48.592;8.850;2022-07-06T05:42:29;19.60;79.40
3942;DHT22;1985;48.592;8.850;2022-07-06T05:44:56;19.50;79.40
3942;DHT22;1985;48.592;8.850;2022-07-06T05:47:22;19.60;79.90
3942;DHT22;1985;48.592;8.850;2022-07-06T05:50:07;19.60;79.50
3942;DHT22;1985;48.592;8.850;2022-07-06T05:52:40;19.70;80.10
3942;DHT22;1985;48.592;8.850;2022-07-06T05:55:07;19.80;80.20
3942;DHT22;1985;48.592;8.850;2022-07-06T05:57:33;19.80;80.30
3942;DHT22;1985;48.592;8.850;2022-07-06T05:59:58;19.80;80.40
3942;DHT22;1985;48.592;8.850;2022-07-06T06:02:24;19.80;79.90
3942;DHT22;1985;48.592;8.850;2022-07-06T06:04:49;19.90;79.10
3942;DHT22;1985;48.592;8.850;2022-07-06T06:07:15;19.90;79.10
3942;DHT22;1985;48.592;8.850;2022-07-06T06:09:41;19.90;79.40
3942;DHT22;1985;48.592;8.850;2022-07-06T06:12:07;20.00;79.70
3942;DHT22;1985;48.592;8.850;2022-07-06T06:14:32;20.10;79.50
3942;DHT22;1985;48.592;8.850;2022-07-06T06:16:58;20.00;78.40
3942;DHT22;1985;48.592;8.850;2022-07-06T06:19:24;20.00;78.00
3942;DHT22;1985;48.592;8.850;2022-07-06T06:21:50;20.00;78.20
3942;DHT22;1985;48.592;8.850;2022-07-06T06:24:17;20.00;78.10
3942;DHT22;1985;48.592;8.850;2022-07-06T06:26:43;19.90;78.50
3942;DHT22;1985;48.592;8.850;2022-07-06T06:29:08;20.00;78.40
3942;DHT22;1985;48.592;8.850;2022-07-06T06:31:34;20.00;78.40
3942;DHT22;1985;48.592;8.850;2022-07-06T06:34:00;20.10;78.50
3942;DHT22;1985;48.592;8.850;2022-07-06T06:36:26;20.20;78.10
3942;DHT22;1985;48.592;8.850;2022-07-06T06:38:51;20.20;78.00
3942;DHT22;1985;48.592;8.850;2022-07-06T06:41:17;20.30;77.70
3942;DHT22;1985;48.592;8.850;2022-07-06T06:43:46;20.30;77.60
3942;DHT22;1985;48.592;8.850;2022-07-06T06:46:11;20.40;77.40
3942;DHT22;1985;48.592;8.850;2022-07-06T06:48:37;20.40;77.70
3942;DHT22;1985;48.592;8.850;2022-07-06T06:51:04;20.40;77.10
3942;DHT22;1985;48.592;8.850;2022-07-06T06:53:30;20.40;77.40
3942;DHT22;1985;48.592;8.850;2022-07-06T06:55:55;20.50;77.90
3942;DHT22;1985;48.592;8.850;2022-07-06T06:58:21;20.60;77.40
3942;DHT22;1985;48.592;8.850;2022-07-06T07:00:47;20.60;77.70
3942;DHT22;1985;48.592;8.850;2022-07-06T07:03:13;20.70;77.10
3942;DHT22;1985;48.592;8.850;2022-07-06T07:05:38;20.70;76.90
3942;DHT22;1985;48.592;8.850;2022-07-06T07:08:05;20.70;76.20
3942;DHT22;1985;48.592;8.850;2022-07-06T07:10:31;20.80;76.80
3942;DHT22;1985;48.592;8.850;2022-07-06T07:12:57;20.80;75.90
3942;DHT22;1985;48.592;8.850;2022-07-06T07:15:23;20.90;76.50
3942;DHT22;1985;48.592;8.850;2022-07-06T07:17:48;20.90;74.70
3942;DHT22;1985;48.592;8.850;2022-07-06T07:20:14;20.80;74.90
3942;DHT22;1985;48.592;8.850;2022-07-06T07:22:39;20.80;75.30
3942;DHT22;1985;48.592;8.850;2022-07-06T07:25:06;20.80;75.20
3942;DHT22;1985;48.592;8.850;2022-07-06T07:27:32;20.70;75.30
3942;DHT22;1985;48.592;8.850;2022-07-06T07:29:58;20.80;75.90
3942;DHT22;1985;48.592;8.850;2022-07-06T07:32:24;21.00;76.30
3942;DHT22;1985;48.592;8.850;2022-07-06T07:34:49;21.10;75.70
3942;DHT22;1985;48.592;8.850;2022-07-06T07:37:15;21.10;74.10
3942;DHT22;1985;48.592;8.850;2022-07-06T07:39:41;21.10;73.80
3942;DHT22;1985;48.592;8.850;2022-07-06T07:42:07;21.20;74.10
3942;DHT22;1985;48.592;8.850;2022-07-06T07:44:33;21.20;73.80
3942;DHT22;1985;48.592;8.850;2022-07-06T07:46:59;21.30;74.30
3942;DHT22;1985;48.592;8.850;2022-07-06T07:49:25;21.30;74.20
3942;DHT22;1985;48.592;8.850;2022-07-06T07:51:50;21.30;72.70
3942;DHT22;1985;48.592;8.850;2022-07-06T07:54:16;21.30;73.70
3942;DHT22;1985;48.592;8.850;2022-07-06T07:56:42;21.30;73.10
3942;DHT22;1985;48.592;8.850;2022-07-06T07:59:08;21.30;73.10
3942;DHT22;1985;48.592;8.850;2022-07-06T08:01:34;21.30;73.10
3942;DHT22;1985;48.592;8.850;2022-07-06T08:04:00;21.30;74.10
3942;DHT22;1985;48.592;8.850;2022-07-06T08:06:26;21.40;73.70
3942;DHT22;1985;48.592;8.850;2022-07-06T08:08:51;21.50;73.50
3942;DHT22;1985;48.592;8.850;2022-07-06T08:11:17;21.60;73.30
3942;DHT22;1985;48.592;8.850;2022-07-06T08:13:43;21.70;73.40
3942;DHT22;1985;48.592;8.850;2022-07-06T08:16:09;21.70;74.30
3942;DHT22;1985;48.592;8.850;2022-07-06T08:18:35;21.80;71.50
3942;DHT22;1985;48.592;8.850;2022-07-06T08:21:02;21.90;72.00
3942;DHT22;1985;48.592;8.850;2022-07-06T08:23:27;22.00;71.20
3942;DHT22;1985;48.592;8.850;2022-07-06T08:25:53;22.00;70.80
3942;DHT22;1985;48.592;8.850;2022-07-06T08:28:19;22.10;71.20
3942;DHT22;1985;48.592;8.850;2022-07-06T08:30:45;22.20;72.20
3942;DHT22;1985;48.592;8.850;2022-07-06T08:33:10;22.20;72.40
3942;DHT22;1985;48.592;8.850;2022-07-06T08:35:36;22.30;71.30
3942;DHT22;1985;48.592;8.850;2022-07-06T08:38:02;22.30;71.60
3942;DHT22;1985;48.592;8.850;2022-07-06T08:40:33;22.40;70.90
3942;DHT22;1985;48.592;8.850;2022-07-06T08:43:00;22.40;70.70
3942;DHT22;1985;48.592;8.850;2022-07-06T08:45:26;22.40;70.00
3942;DHT22;1985;48.592;8.850;2022-07-06T08:47:54;22.40;69.70
3942;DHT22;1985;48.592;8.850;2022-07-06T08:50:21;22.40;69.30
3942;DHT22;1985;48.592;8.850;2022-07-06T08:52:50;22.50;69.20
3942;DHT22;1985;48.592;8.850;2022-07-06T08:55:17;22.40;68.80
3942;DHT22;1985;48.592;8.850;2022-07-06T08:57:45;22.50;68.30
3942;DHT22;1985;48.592;8.850;2022-07-06T09:00:11;22.60;69.00
3942;DHT22;1985;48.592;8.850;2022-07-06T09:02:37;22.60;69.40
3942;DHT22;1985;48.592;8.850;2022-07-06T09:05:06;22.60;68.50
3942;DHT22;1985;48.592;8.850;2022-07-06T09:07:32;22.70;68.20
3942;DHT22;1985;48.592;8.850;2022-07-06T09:10:00;22.80;68.90
3942;DHT22;1985;48.592;8.850;2022-07-06T09:12:27;22.80;68.10
3942;DHT22;1985;48.592;8.850;2022-07-06T09:14:56;22.80;68.80
3942;DHT22;1985;48.592;8.850;2022-07-06T09:17:28;22.90;69.00
3942;DHT22;1985;48.592;8.850;2022-07-06T09:19:55;22.90;68.30
3942;DHT22;1985;48.592;8.850;2022-07-06T09:22:29;23.00;69.00
3942;DHT22;1985;48.592;8.850;2022-07-06T09:27:36;23.20;68.20
3942;DHT22;1985;48.592;8.850;2022-07-06T09:30:03;23.30;68.30
3942;DHT22;1985;48.592;8.850;2022-07-06T09:32:28;23.50;67.70
3942;DHT22;1985;48.592;8.850;2022-07-06T09:34:54;23.70;67.60
3942;DHT22;1985;48.592;8.850;2022-07-06T09:37:21;23.70;66.80
3942;DHT22;1985;48.592;8.850;2022-07-06T09:39:48;23.90;67.10
3942;DHT22;1985;48.592;8.850;2022-07-06T09:42:14;24.10;66.60
3942;DHT22;1985;48.592;8.850;2022-07-06T09:44:41;24.30;65.60
3942;DHT22;1985;48.592;8.850;2022-07-06T09:47:09;24.50;67.60
3942;DHT22;1985;48.592;8.850;2022-07-06T09:49:38;24.50;65.40
3942;DHT22;1985;48.592;8.850;2022-07-06T09:52:09;24.80;65.40
3942;DHT22;1985;48.592;8.850;2022-07-06T09:54:36;25.10;61.90
3942;DHT22;1985;48.592;8.850;2022-07-06T09:57:04;25.20;63.30
3942;DHT22;1985;48.592;8.850;2022-07-06T09:59:32;25.10;62.00
3942;DHT22;1985;48.592;8.850;2022-07-06T10:02:00;24.90;62.30
3942;DHT22;1985;48.592;8.850;2022-07-06T10:04:27;24.90;64.20
3942;DHT22;1985;48.592;8.850;2022-07-06T10:06:54;24.90;63.70
3942;DHT22;1985;48.592;8.850;2022-07-06T10:09:22;25.00;64.20
3942;DHT22;1985;48.592;8.850;2022-07-06T10:11:58;25.20;63.70
3942;DHT22;1985;48.592;8.850;2022-07-06T10:14:30;25.40;62.90
3942;DHT22;1985;48.592;8.850;2022-07-06T10:16:58;25.40;61.00
3942;DHT22;1985;48.592;8.850;2022-07-06T10:19:24;25.20;63.20
3942;DHT22;1985;48.592;8.850;2022-07-06T10:21:50;25.40;64.90
3942;DHT22;1985;48.592;8.850;2022-07-06T10:24:20;25.40;63.50
3942;DHT22;1985;48.592;8.850;2022-07-06T10:26:48;25.30;62.80
3942;DHT22;1985;48.592;8.850;2022-07-06T10:29:14;25.00;63.30
3942;DHT22;1985;48.592;8.850;2022-07-06T10:31:43;24.70;64.10
3942;DHT22;1985;48.592;8.850;2022-07-06T10:34:12;24.90;64.80
3942;DHT22;1985;48.592;8.850;2022-07-06T10:36:40;25.70;63.20
3942;DHT22;1985;48.592;8.850;2022-07-06T10:39:06;26.50;64.10
3942;DHT22;1985;48.592;8.850;2022-07-06T10:41:51;27.00;62.40
3942;DHT22;1985;48.592;8.850;2022-07-06T10:44:24;27.60;60.30
3942;DHT22;1985;48.592;8.850;2022-07-06T10:46:54;28.20;59.10
3942;DHT22;1985;48.592;8.850;2022-07-06T10:49:21;27.90;58.30
3942;DHT22;1985;48.592;8.850;2022-07-06T10:51:47;27.40;59.00
3942;DHT22;1985;48.592;8.850;2022-07-06T10:54:15;26.90;59.80
3942;DHT22;1985;48.592;8.850;2022-07-06T10:56:47;26.70;60.80
3942;DHT22;1985;48.592;8.850;2022-07-06T11:02:17;25.70;62.20
3942;DHT22;1985;48.592;8.850;2022-07-06T11:04:47;25.60;63.40
3942;DHT22;1985;48.592;8.850;2022-07-06T11:07:15;25.50;63.20
3942;DHT22;1985;48.592;8.850;2022-07-06T11:09:41;25.40;62.80
3942;DHT22;1985;48.592;8.850;2022-07-06T11:12:17;25.10;63.50
3942;DHT22;1985;48.592;8.850;2022-07-06T11:14:47;25.10;64.50
3942;DHT22;1985;48.592;8.850;2022-07-06T11:17:13;24.70;65.20
3942;DHT22;1985;48.592;8.850;2022-07-06T11:19:49;24.60;65.50
3942;DHT22;1985;48.592;8.850;2022-07-06T11:22:16;24.80;65.60
3942;DHT22;1985;48.592;8.850;2022-07-06T11:24:42;24.90;65.00
3942;DHT22;1985;48.592;8.850;2022-07-06T11:27:09;25.10;65.90
3942;DHT22;1985;48.592;8.850;2022-07-06T11:29:35;25.30;66.00
3942;DHT22;1985;48.592;8.850;2022-07-06T11:32:06;25.30;65.60
3942;DHT22;1985;48.592;8.850;2022-07-06T11:34:37;25.20;64.70
3942;DHT22;1985;48.592;8.850;2022-07-06T11:37:06;25.00;64.20
3942;DHT22;1985;48.592;8.850;2022-07-06T11:39:33;24.90;65.00
3942;DHT22;1985;48.592;8.850;2022-07-06T11:42:01;24.80;65.00
3942;DHT22;1985;48.592;8.850;2022-07-06T11:44:27;24.70;65.60
3942;DHT22;1985;48.592;8.850;2022-07-06T11:46:53;24.60;66.30
3942;DHT22;1985;48.592;8.850;2022-07-06T11:49:22;24.50;66.60
3942;DHT22;1985;48.592;8.850;2022-07-06T11:51:47;24.50;66.80
3942;DHT22;1985;48.592;8.850;2022-07-06T11:54:18;24.50;66.60
3942;DHT22;1985;48.592;8.850;2022-07-06T11:56:47;24.50;67.30
3942;DHT22;1985;48.592;8.850;2022-07-06T11:59:15;24.70;67.60
3942;DHT22;1985;48.592;8.850;2022-07-06T12:01:41;24.60;66.40
3942;DHT22;1985;48.592;8.850;2022-07-06T12:04:10;24.60;66.70
3942;DHT22;1985;48.592;8.850;2022-07-06T12:06:36;24.50;67.10
3942;DHT22;1985;48.592;8.850;2022-07-06T12:09:03;24.40;67.00
3942;DHT22;1985;48.592;8.850;2022-07-06T12:11:35;24.50;67.10
3942;DHT22;1985;48.592;8.850;2022-07-06T12:14:03;24.60;67.70
3942;DHT22;1985;48.592;8.850;2022-07-06T12:16:37;24.60;66.70
3942;DHT22;1985;48.592;8.850;2022-07-06T12:19:04;24.60;67.40
3942;DHT22;1985;48.592;8.850;2022-07-06T12:21:30;24.90;67.10
3942;DHT22;1985;48.592;8.850;2022-07-06T12:23:57;24.80;66.30
3942;DHT22;1985;48.592;8.850;2022-07-06T12:26:28;24.60;66.80
3942;DHT22;1985;48.592;8.850;2022-07-06T12:29:10;24.50;66.80
3942;DHT22;1985;48.592;8.850;2022-07-06T12:34:25;24.50;66.90
3942;DHT22;1985;48.592;8.850;2022-07-06T12:36:56;24.90;67.10
3942;DHT22;1985;48.592;8.850;2022-07-06T12:39:27;25.40;66.90
3942;DHT22;1985;48.592;8.850;2022-07-06T12:42:04;25.90;65.90
3942;DHT22;1985;48.592;8.850;2022-07-06T12:44:35;26.30;63.30
3942;DHT22;1985;48.592;8.850;2022-07-06T12:47:08;26.30;63.10
3942;DHT22;1985;48.592;8.850;2022-07-06T12:49:35;26.40;62.80
3942;DHT22;1985;48.592;8.850;2022-07-06T12:52:14;26.70;61.20
3942;DHT22;1985;48.592;8.850;2022-07-06T12:54:42;26.90;61.20
3942;DHT22;1985;48.592;8.850;2022-07-06T13:07:22;27.60;58.40
3942;DHT22;1985;48.592;8.850;2022-07-06T13:09:48;27.40;58.40
3942;DHT22;1985;48.592;8.850;2022-07-06T13:12:14;27.50;58.90
3942;DHT22;1985;48.592;8.850;2022-07-06T13:14:39;27.30;58.60
3942;DHT22;1985;48.592;8.850;2022-07-06T13:17:05;27.20;58.60
3942;DHT22;1985;48.592;8.850;2022-07-06T13:19:30;27.10;58.60
3942;DHT22;1985;48.592;8.850;2022-07-06T13:21:56;27.10;59.50
3942;DHT22;1985;48.592;8.850;2022-07-06T13:24:22;27.20;59.90
3942;DHT22;1985;48.592;8.850;2022-07-06T13:26:47;27.10;58.60
3942;DHT22;1985;48.592;8.850;2022-07-06T13:29:13;26.80;57.00
3942;DHT22;1985;48.592;8.850;2022-07-06T13:31:39;26.80;58.60
3942;DHT22;1985;48.592;8.850;2022-07-06T13:34:06;27.00;59.30
3942;DHT22;1985;48.592;8.850;2022-07-06T13:36:33;27.10;58.70
3942;DHT22;1985;48.592;8.850;2022-07-06T13:38:59;27.30;59.20
3942;DHT22;1985;48.592;8.850;2022-07-06T13:41:25;27.30;57.70
3942;DHT22;1985;48.592;8.850;2022-07-06T13:43:50;27.20;58.50
3942;DHT22;1985;48.592;8.850;2022-07-06T13:46:16;27.30;58.80
3942;DHT22;1985;48.592;8.850;2022-07-06T13:48:42;27.30;57.60
3942;DHT22;1985;48.592;8.850;2022-07-06T13:51:08;27.20;58.20
3942;DHT22;1985;48.592;8.850;2022-07-06T13:53:34;27.20;57.80
3942;DHT22;1985;48.592;8.850;2022-07-06T13:56:00;27.30;57.00
3942;DHT22;1985;48.592;8.850;2022-07-06T13:58:26;27.30;58.10
3942;DHT22;1985;48.592;8.850;2022-07-06T14:00:51;27.10;57.60
3942;DHT22;1985;48.592;8.850;2022-07-06T14:03:17;27.10;57.90
3942;DHT22;1985;48.592;8.850;2022-07-06T14:05:43;27.10;58.00
3942;DHT22;1985;48.592;8.850;2022-07-06T14:08:09;27.10;57.60
3942;DHT22;1985;48.592;8.850;2022-07-06T14:10:34;27.00;57.60
3942;DHT22;1985;48.592;8.850;2022-07-06T14:13:00;26.70;57.80
3942;DHT22;1985;48.592;8.850;2022-07-06T14:15:26;26.50;57.00
3942;DHT22;1985;48.592;8.850;2022-07-06T14:17:53;26.20;57.40
3942;DHT22;1985;48.592;8.850;2022-07-06T14:20:18;26.10;58.70
3942;DHT22;1985;48.592;8.850;2022-07-06T14:22:44;26.20;58.80
3942;DHT22;1985;48.592;8.850;2022-07-06T14:25:10;26.30;58.40
3942;DHT22;1985;48.592;8.850;2022-07-06T14:27:36;26.40;58.70
3942;DHT22;1985;48.592;8.850;2022-07-06T14:30:03;26.10;57.70
3942;DHT22;1985;48.592;8.850;2022-07-06T14:32:29;25.80;59.20
3942;DHT22;1985;48.592;8.850;2022-07-06T14:34:55;25.60;59.40
3942;DHT22;1985;48.592;8.850;2022-07-06T14:37:20;25.50;60.10
3942;DHT22;1985;48.592;8.850;2022-07-06T14:39:46;25.50;59.90
3942;DHT22;1985;48.592;8.850;2022-07-06T14:42:13;25.50;60.20
3942;DHT22;1985;48.592;8.850;2022-07-06T14:44:39;25.40;59.50
3942;DHT22;1985;48.592;8.850;2022-07-06T14:47:04;25.40;60.00
3942;DHT22;1985;48.592;8.850;2022-07-06T14:49:31;25.40;60.80
3942;DHT22;1985;48.592;8.850;2022-07-06T14:51:56;25.40;60.10
3942;DHT22;1985;48.592;8.850;2022-07-06T14:54:25;25.40;59.70
3942;DHT22;1985;48.592;8.850;2022-07-06T14:56:51;25.40;60.00
3942;DHT22;1985;48.592;8.850;2022-07-06T14:59:17;25.50;59.40
3942;DHT22;1985;48.592;8.850;2022-07-06T15:01:43;25.70;59.10
3942;DHT22;1985;48.592;8.850;2022-07-06T15:04:09;25.60;59.00
3942;DHT22;1985;48.592;8.850;2022-07-06T15:06:35;25.40;59.30
3942;DHT22;1985;48.592;8.850;2022-07-06T15:09:01;25.50;59.80
3942;DHT22;1985;48.592;8.850;2022-07-06T15:11:30;25.30;59.80
3942;DHT22;1985;48.592;8.850;2022-07-06T15:13:56;25.10;60.20
3942;DHT22;1985;48.592;8.850;2022-07-06T15:16:21;25.10;61.30
3942;DHT22;1985;48.592;8.850;2022-07-06T15:18:47;25.10;61.30
3942;DHT22;1985;48.592;8.850;2022-07-06T15:21:12;25.00;60.80
3942;DHT22;1985;48.592;8.850;2022-07-06T15:23:38;25.00;61.10
3942;DHT22;1985;48.592;8.850;2022-07-06T15:26:04;25.10;60.50
3942;DHT22;1985;48.592;8.850;2022-07-06T15:28:29;25.10;59.90
3942;DHT22;1985;48.592;8.850;2022-07-06T15:30:55;24.90;59.20
3942;DHT22;1985;48.592;8.850;2022-07-06T15:33:21;24.70;59.50
3942;DHT22;1985;48.592;8.850;2022-07-06T15:35:47;24.50;59.10
3942;DHT22;1985;48.592;8.850;2022-07-06T15:38:14;24.40;60.20
3942;DHT22;1985;48.592;8.850;2022-07-06T15:40:39;24.50;59.70
3942;DHT22;1985;48.592;8.850;2022-07-06T15:43:09;24.50;60.10
3942;DHT22;1985;48.592;8.850;2022-07-06T15:45:35;24.60;59.90
3942;DHT22;1985;48.592;8.850;2022-07-06T15:48:01;24.70;59.30
3942;DHT22;1985;48.592;8.850;2022-07-06T15:50:28;24.80;58.90
3942;DHT22;1985;48.592;8.850;2022-07-06T15:52:54;24.70;59.00
3942;DHT22;1985;48.592;8.850;2022-07-06T15:55:19;24.70;59.40
3942;DHT22;1985;48.592;8.850;2022-07-06T15:57:47;24.60;58.40
3942;DHT22;1985;48.592;8.850;2022-07-06T16:00:13;24.50;59.00
3942;DHT22;1985;48.592;8.850;2022-07-06T16:02:39;24.60;58.80
3942;DHT22;1985;48.592;8.850;2022-07-06T16:05:05;24.50;58.70
3942;DHT22;1985;48.592;8.850;2022-07-06T16:07:31;24.30;58.80
3942;DHT22;1985;48.592;8.850;2022-07-06T16:09:57;24.20;59.20
3942;DHT22;1985;48.592;8.850;2022-07-06T16:12:22;24.00;59.00
3942;DHT22;1985;48.592;8.850;2022-07-06T16:14:48;23.80;59.10
3942;DHT22;1985;48.592;8.850;2022-07-06T16:17:13;23.80;59.60